Terminal Aerodrome Forecast
Issued by NWS Louisville, KY

Home | Current Version | Previous Version | Text Only | Print | Product List | Glossary On
Versions: 1 2 3 4 5 6 7 8 9 10 11 12 13 14 15 16
000
FTUS43 KLMK 041608 AAA
TAFLEX
TAF AMD
KLEX 041608Z 0416/0512 23012G18KT P6SM VCSH BKN035
     FM041700 27012G18KT 6SM -SHRA SCT025 BKN035
      TEMPO 0417/0420 3SM -SHRA BKN025
     FM042000 29013G19KT P6SM VCSH BKN035
     FM042300 30010KT P6SM BKN030
     FM050400 31007KT P6SM BKN012=

USA.gov is the U.S. government's official web portal to all federal, state and local government web resources and services.